createdAt,value
2018-12-21T00:00:28.368Z,0.83
2018-12-21T00:05:33.360Z,6.43
2018-12-21T00:10:38.244Z,2.40
2018-12-21T00:15:43.074Z,13.33
2018-12-21T00:20:47.878Z,3.60
2018-12-21T00:25:52.769Z,3.83
2018-12-21T00:31:01.665Z,4.27
2018-12-21T00:36:10.524Z,5.63
2018-12-21T00:41:15.034Z,34.30
2018-12-21T00:46:21.849Z,45.73
2018-12-21T00:51:30.339Z,47.40
2018-12-21T00:56:33.729Z,47.03
2018-12-21T01:01:38.689Z,63.93
2018-12-21T01:06:43.541Z,59.23
2018-12-21T01:11:48.408Z,99.73
2018-12-21T01:16:53.154Z,108.90
2018-12-21T01:21:57.919Z,70.40
2018-12-21T01:27:12.319Z,37.03
2018-12-21T01:32:17.483Z,50.47
2018-12-21T01:37:23.303Z,30.67
2018-12-21T01:42:28.261Z,42.23
2018-12-21T01:47:33.153Z,60.63
2018-12-21T01:52:38.043Z,89.73
2018-12-21T01:57:42.852Z,40.17
2018-12-21T02:02:47.591Z,34.77
2018-12-21T02:07:52.464Z,31.40
2018-12-21T02:12:57.364Z,40.93
2018-12-21T02:18:02.249Z,64.45
2018-12-21T02:23:19.599Z,54.07
2018-12-21T02:28:24.199Z,50.70
2018-12-21T02:33:29.049Z,26.77
2018-12-21T02:38:34.029Z,18.83
2018-12-21T02:43:38.890Z,15.70
2018-12-21T02:48:43.635Z,34.97
2018-12-21T02:54:00.139Z,18.02
2018-12-21T02:59:05.191Z,24.87
2018-12-21T03:04:10.245Z,36.73
2018-12-21T03:09:15.509Z,30.03
2018-12-21T03:19:58.424Z,32.60
2018-12-21T03:25:14.734Z,34.77
2018-12-21T03:30:19.494Z,23.77
2018-12-21T03:35:24.547Z,17.60
2018-12-21T03:40:29.499Z,55.05
2018-12-21T03:45:34.400Z,53.70
2018-12-21T03:50:39.234Z,25.62
2018-12-21T03:55:44.094Z,25.40
2018-12-21T04:00:48.934Z,19.60
2018-12-21T04:05:53.894Z,16.93
2018-12-21T04:10:58.775Z,27.57
2018-12-21T04:16:03.711Z,30.33
2018-12-21T04:21:08.545Z,20.70
2018-12-21T04:26:13.519Z,19.82
2018-12-21T04:31:18.444Z,29.30
2018-12-21T04:36:23.283Z,28.40
2018-12-21T04:41:28.244Z,27.03
2018-12-21T04:46:33.096Z,27.05
2018-12-21T04:51:37.954Z,32.23
2018-12-21T04:56:42.844Z,46.13
2018-12-21T05:01:47.730Z,35.77
2018-12-21T05:06:52.678Z,42.63
2018-12-21T05:11:57.988Z,41.70
2018-12-21T05:17:02.999Z,45.77
2018-12-21T05:22:07.894Z,37.53
2018-12-21T05:27:12.703Z,37.27
2018-12-21T05:32:17.654Z,36.87
2018-12-21T05:37:23.432Z,43.42
2018-12-21T05:42:28.450Z,40.70
2018-12-21T05:53:01.684Z,42.90
2018-12-21T05:58:06.600Z,37.03
2018-12-21T06:03:11.635Z,39.30
2018-12-21T06:08:16.453Z,43.50
2018-12-21T06:13:21.239Z,32.67
2018-12-21T06:18:26.079Z,43.43
2018-12-21T06:23:30.924Z,36.38
2018-12-21T06:28:35.771Z,36.10
2018-12-21T06:33:40.628Z,35.97
2018-12-21T06:38:45.459Z,34.13
2018-12-21T06:43:50.421Z,37.77
2018-12-21T06:48:55.274Z,38.43
2018-12-21T06:54:00.070Z,31.50
2018-12-21T06:59:04.866Z,30.20
2018-12-21T07:04:09.780Z,35.63
2018-12-21T07:09:14.738Z,37.23
2018-12-21T07:14:19.579Z,38.67
2018-12-21T07:19:24.459Z,38.00
2018-12-21T07:24:29.386Z,34.25
2018-12-21T07:29:34.204Z,42.85
2018-12-21T07:34:39.070Z,42.10
2018-12-21T07:39:44.036Z,41.20
2018-12-21T07:44:49.098Z,40.43
2018-12-21T08:06:20.063Z,34.90
2018-12-21T08:11:24.863Z,38.70
2018-12-21T08:16:29.879Z,51.37
2018-12-21T08:21:34.848Z,43.28
2018-12-21T08:26:39.708Z,40.43
2018-12-21T08:37:07.333Z,32.13
2018-12-21T08:42:12.173Z,43.03
2018-12-21T08:47:17.238Z,37.03
2018-12-21T08:52:23.263Z,37.60
2018-12-21T08:57:28.138Z,29.92
2018-12-21T09:02:33.055Z,41.03
2018-12-21T09:07:37.848Z,33.83
2018-12-21T09:12:42.690Z,41.23
2018-12-21T09:17:47.649Z,40.00
2018-12-21T09:22:52.655Z,35.50
2018-12-21T09:27:57.552Z,38.27
2018-12-21T09:33:02.478Z,38.63
2018-12-21T09:38:07.283Z,35.60
2018-12-21T09:43:11.993Z,39.63
2018-12-21T09:48:17.045Z,35.53
2018-12-21T09:53:21.857Z,36.40
2018-12-21T09:58:26.792Z,35.90
2018-12-21T10:03:31.697Z,27.98
2018-12-21T10:08:36.471Z,30.20
2018-12-21T10:13:41.398Z,36.37
2018-12-21T10:18:46.348Z,33.03
2018-12-21T10:23:52.167Z,28.63
2018-12-21T10:28:57.022Z,33.83
2018-12-21T10:34:01.862Z,39.97
2018-12-21T10:39:08.332Z,34.90
2018-12-21T10:44:13.288Z,32.23
2018-12-21T10:49:18.338Z,32.27
2018-12-21T10:54:26.995Z,32.17
2018-12-21T10:59:30.953Z,35.28
2018-12-21T11:04:35.861Z,28.90
2018-12-21T11:09:40.642Z,35.00
2018-12-21T11:14:45.392Z,29.70
2018-12-21T11:19:50.158Z,22.70
2018-12-21T11:24:54.952Z,28.77
2018-12-21T11:29:59.867Z,23.60
2018-12-21T11:35:04.846Z,28.40
2018-12-21T11:40:09.937Z,28.83
2018-12-21T11:50:53.555Z,35.87
2018-12-21T11:55:58.400Z,29.37
2018-12-21T12:01:03.310Z,30.53
2018-12-21T12:06:08.205Z,35.40
2018-12-21T12:11:13.124Z,37.73
2018-12-21T12:16:18.045Z,35.03
2018-12-21T12:21:23.965Z,31.83
2018-12-21T12:26:28.995Z,33.20
2018-12-21T12:31:34.026Z,34.67
2018-12-21T12:36:38.844Z,33.48
2018-12-21T12:41:43.786Z,35.00
2018-12-21T12:46:48.835Z,39.57
2018-12-21T12:51:53.875Z,47.87
2018-12-21T12:56:58.816Z,37.37
2018-12-21T13:02:03.654Z,37.73
2018-12-21T13:07:08.550Z,35.00
2018-12-21T13:12:13.345Z,38.00
2018-12-21T13:17:18.250Z,31.00
2018-12-21T13:22:23.245Z,27.47
2018-12-21T13:27:28.085Z,30.65
2018-12-21T13:32:33.134Z,33.10
2018-12-21T13:37:38.065Z,35.37
2018-12-21T13:42:42.873Z,32.77
2018-12-21T13:47:47.866Z,35.40
2018-12-21T13:52:52.860Z,32.97
2018-12-21T13:57:57.921Z,27.97
2018-12-21T14:03:02.900Z,33.90
2018-12-21T14:08:07.940Z,33.73
2018-12-21T14:13:12.866Z,34.67
2018-12-21T14:18:17.801Z,32.73
2018-12-21T14:23:23.995Z,39.94
2018-12-21T14:28:28.908Z,34.23
2018-12-21T14:33:33.681Z,40.03
2018-12-21T14:38:38.469Z,32.38
2018-12-21T14:43:43.335Z,30.30
2018-12-21T14:48:48.240Z,35.20
2018-12-21T14:53:53.270Z,27.87
2018-12-21T14:58:58.310Z,43.33
2018-12-21T15:04:03.231Z,19.03
2018-12-21T15:09:08.785Z,27.90
2018-12-21T15:14:13.526Z,37.60
2018-12-21T15:19:18.400Z,29.13
2018-12-21T15:24:23.325Z,18.37
2018-12-21T15:29:28.211Z,27.20
2018-12-21T15:34:33.142Z,25.48
2018-12-21T15:39:38.059Z,26.95
2018-12-21T15:44:43.031Z,22.13
2018-12-21T15:49:47.821Z,24.90
2018-12-21T15:54:52.711Z,33.40
2018-12-21T15:59:57.765Z,29.47
2018-12-21T16:05:02.702Z,22.90
2018-12-21T16:10:09.306Z,24.80
2018-12-21T16:15:14.121Z,20.93
2018-12-21T16:20:18.896Z,26.93
2018-12-21T16:25:25.101Z,25.20
2018-12-21T16:30:29.946Z,33.27
2018-12-21T16:35:34.788Z,32.93
2018-12-21T16:40:39.628Z,34.53
2018-12-21T16:45:44.468Z,23.90
2018-12-21T16:50:49.307Z,33.80
2018-12-21T16:55:54.207Z,27.67
2018-12-21T17:00:58.989Z,28.33
2018-12-21T17:06:03.944Z,27.27
2018-12-21T17:16:46.028Z,24.67
2018-12-21T17:27:29.169Z,26.40
2018-12-21T17:38:02.388Z,27.13
2018-12-21T17:43:07.192Z,28.93
2018-12-21T17:48:12.069Z,26.93
2018-12-21T17:53:16.909Z,31.00
2018-12-21T17:58:22.029Z,30.53
2018-12-21T18:03:32.606Z,33.73
2018-12-21T18:08:37.441Z,33.10
2018-12-21T18:13:42.391Z,36.90
2018-12-21T18:18:47.330Z,37.10
2018-12-21T18:23:52.228Z,33.23
2018-12-21T18:28:57.088Z,38.37
2018-12-21T18:34:04.836Z,37.93
2018-12-21T18:39:10.109Z,44.07
2018-12-21T18:44:14.909Z,39.33
2018-12-21T18:49:19.868Z,51.13
2018-12-21T18:54:26.448Z,45.12
2018-12-21T18:59:31.269Z,36.30
2018-12-21T19:04:36.097Z,41.28
2018-12-21T19:09:41.012Z,45.60
2018-12-21T19:14:45.730Z,36.27
2018-12-21T19:19:50.689Z,40.17
2018-12-21T19:24:55.609Z,35.97
2018-12-21T19:30:00.636Z,23.97
2018-12-21T19:35:05.790Z,26.93
2018-12-21T19:40:11.970Z,24.97
2018-12-21T19:45:16.812Z,21.23
2018-12-21T19:50:21.709Z,27.50
2018-12-21T19:55:34.390Z,26.17
2018-12-21T20:06:19.529Z,36.30
2018-12-21T20:11:24.388Z,34.53
2018-12-21T20:16:29.409Z,40.07
2018-12-21T20:21:34.348Z,33.13
2018-12-21T20:26:42.230Z,34.43
2018-12-21T20:31:47.530Z,34.87
2018-12-21T20:36:52.471Z,26.40
2018-12-21T20:41:57.640Z,31.27
2018-12-21T20:47:04.568Z,40.00
2018-12-21T20:52:09.593Z,34.67
2018-12-21T20:57:21.842Z,42.00
2018-12-21T21:02:22.737Z,40.23
2018-12-21T21:07:27.556Z,36.23
2018-12-21T21:12:32.456Z,38.17
2018-12-21T21:17:37.378Z,43.60
2018-12-21T21:22:59.863Z,38.70
2018-12-21T21:28:04.767Z,42.93
2018-12-21T21:33:09.663Z,43.08
2018-12-21T21:38:14.602Z,36.00
2018-12-21T21:43:21.298Z,37.20
2018-12-21T21:48:26.118Z,39.80
2018-12-21T21:53:30.937Z,41.87
2018-12-21T21:58:35.748Z,46.08
2018-12-21T22:03:40.537Z,36.20
2018-12-21T22:08:45.552Z,33.47
2018-12-21T22:13:50.505Z,37.70
2018-12-21T22:18:55.568Z,41.90
2018-12-21T22:24:00.617Z,33.83
2018-12-21T22:29:05.591Z,34.90
2018-12-21T22:34:10.547Z,29.50
2018-12-21T22:39:15.362Z,29.07
2018-12-21T22:44:20.206Z,37.73
2018-12-21T22:49:25.641Z,34.83
2018-12-21T22:54:30.556Z,32.10
2018-12-21T22:59:35.517Z,37.08
2018-12-21T23:04:41.351Z,39.18
2018-12-21T23:09:46.197Z,35.03
2018-12-21T23:14:51.060Z,33.93
2018-12-21T23:19:55.938Z,36.63
2018-12-21T23:25:01.015Z,30.97
2018-12-21T23:30:07.080Z,40.97
2018-12-21T23:35:11.966Z,40.10
2018-12-21T23:40:16.800Z,41.80
2018-12-21T23:45:21.716Z,39.37
2018-12-21T23:50:26.611Z,47.98
2018-12-21T23:55:31.531Z,45.57
